KPRO/PRO METAR and TAF weather

Enter ICAO airport designator
Station Type Date Time Source
KPRO METAR 2021/07/24 19:35 UTC NOAA

KPRO 241935Z AUTO 36003KT 10SM CLR 32/25 A2994 RMK AO2 T03190252


Station Type Date Time Source
KPRO Decoded METAR 2021/07/24 19:35 UTC NOAA

Station name not available
Jul 24, 2021 - 03:35 PM EDT / 2021.07.24 1935 UTC
Wind: from the N (360 degrees) at 3 MPH (3 KT):0
Visibility: 10 mile(s):0
Sky conditions: clear
Temperature: 89.4 F (31.9 C)
Heat index: 102.2 F (39.0 C):1
Dew Point: 77.4 F (25.2 C)
Relative Humidity: 67%
Pressure (altimeter): 29.94 in. Hg (1013 hPa)
ob: KPRO 241935Z AUTO 36003KT 10SM CLR 32/25 A2994 RMK AO2 T03190252
cycle: 19

Station Type Date Time Source
KPRO TAF UTC NOAA

Error!

Example: see airport list